Time;durP1;ratioP1;P1;durP2;ratioP2;P2;SDS_P1;SDS_P2;PMS_P1;PMS_P2;Temp;Humidity;BMP_temperature;BMP_pressure;BME280_temperature;BME280_humidity;BME280_pressure;Samples;Min_cycle;Max_cycle;Signal;HPM_P1;HPM_P2
2022/05/25 00:02:20;;;;;;;1.50;1.13;;;14.30;59.80;;;;;;4936525;29;20449;-76
2022/05/25 00:04:47;;;;;;;0.90;0.90;;;14.30;59.60;;;;;;4936033;29;20504;-77
2022/05/25 00:07:14;;;;;;;2.73;1.20;;;14.30;60.00;;;;;;4936432;29;20301;-77
2022/05/25 00:09:41;;;;;;;1.40;1.30;;;14.30;60.00;;;;;;4936121;29;20488;-77
2022/05/25 00:12:09;;;;;;;2.90;0.90;;;14.20;60.00;;;;;;4936826;29;20413;-77
2022/05/25 00:14:37;;;;;;;1.23;1.00;;;14.20;60.80;;;;;;4943720;29;20478;-77
2022/05/25 00:17:05;;;;;;;2.00;1.10;;;14.20;61.30;;;;;;4947235;29;20884;-77
2022/05/25 00:22:16;;;;;;;5.97;1.50;;;14.10;62.40;;;;;;4936018;29;20438;-76
2022/05/25 00:24:43;;;;;;;1.30;1.20;;;14.10;62.40;;;;;;4935658;29;20453;-76
2022/05/25 00:27:10;;;;;;;1.53;1.10;;;14.20;62.50;;;;;;4936070;29;20893;-77
2022/05/25 00:29:38;;;;;;;4.07;1.10;;;14.20;62.50;;;;;;4936224;29;20439;-77
2022/05/25 00:32:06;;;;;;;1.00;1.00;;;14.20;62.50;;;;;;4936202;29;20469;-76
2022/05/25 00:34:33;;;;;;;1.43;1.00;;;14.20;61.90;;;;;;4937642;29;20462;-77
2022/05/25 00:37:00;;;;;;;1.40;0.87;;;14.20;61.50;;;;;;4944023;29;20459;-76
2022/05/25 00:39:27;;;;;;;1.23;1.13;;;14.10;62.40;;;;;;4943110;29;20984;-76
2022/05/25 00:41:55;;;;;;;1.30;1.20;;;14.10;62.40;;;;;;4935832;29;20866;-77
2022/05/25 00:44:22;;;;;;;1.17;1.17;;;14.10;62.40;;;;;;4935538;29;21001;-77
2022/05/25 00:46:51;;;;;;;0.93;0.93;;;14.10;62.40;;;;;;4935363;29;20440;-76
2022/05/25 00:49:22;;;;;;;1.40;1.30;;;14.10;62.40;;;;;;4935905;29;20475;-76
2022/05/25 00:51:53;;;;;;;1.42;1.33;;;14.10;62.40;;;;;;4936075;29;20213;-77
2022/05/25 00:54:24;;;;;;;2.85;1.00;;;14.00;63.00;;;;;;4936342;29;20245;-77
2022/05/25 00:56:52;;;;;;;1.37;1.27;;;14.00;62.30;;;;;;4936533;29;20218;-76
2022/05/25 00:59:22;;;;;;;2.30;1.40;;;14.00;62.30;;;;;;4951010;29;20466;-76
2022/05/25 01:01:51;;;;;;;0.97;0.87;;;14.00;62.30;;;;;;4941877;29;20440;-77
2022/05/25 01:04:18;;;;;;;1.27;1.13;;;14.00;63.20;;;;;;4958321;23;20595;-83
2022/05/25 01:06:59;;;;;;;1.53;1.43;;;14.10;63.00;;;;;;4939945;29;20465;-84
2022/05/25 01:09:39;;;;;;;1.20;1.10;;;14.00;63.20;;;;;;4940281;29;20502;-83
2022/05/25 01:12:18;;;;;;;1.27;1.17;;;14.00;63.10;;;;;;4939484;29;20984;-85
2022/05/25 01:15:02;;;;;;;1.52;1.42;;;14.00;62.30;;;;;;4939521;29;20636;-84
2022/05/25 01:17:39;;;;;;;1.50;1.23;;;14.10;62.40;;;;;;4940216;29;20206;-83
2022/05/25 01:20:16;;;;;;;2.90;1.40;;;14.10;62.40;;;;;;4939688;28;20484;-86
2022/05/25 01:23:08;;;;;;;1.30;1.20;;;14.00;63.10;;;;;;4942315;29;20516;-84
2022/05/25 01:26:10;;;;;;;1.42;1.33;;;14.00;63.50;;;;;;4943206;29;20901;-84
2022/05/25 01:28:50;;;;;;;3.78;1.30;;;14.00;64.30;;;;;;4943332;29;20242;-84
2022/05/25 01:31:24;;;;;;;1.30;1.10;;;14.00;64.60;;;;;;4943907;29;20194;-85
2022/05/25 01:33:55;;;;;;;4.85;1.00;;;14.10;63.30;;;;;;4954140;29;20441;-86
2022/05/25 01:36:30;;;;;;;1.20;1.10;;;14.10;62.80;;;;;;4955624;29;20207;-83
2022/05/25 01:39:05;;;;;;;4.20;1.10;;;14.00;62.30;;;;;;4951893;29;20413;-84
2022/05/25 01:41:39;;;;;;;1.20;1.10;;;14.00;62.30;;;;;;4943207;29;20472;-83
2022/05/25 01:44:09;;;;;;;3.50;1.30;;;14.00;62.30;;;;;;4943057;28;20513;-82
2022/05/25 01:46:41;;;;;;;2.30;1.40;;;14.00;62.30;;;;;;4943158;29;20195;-83
2022/05/25 01:49:13;;;;;;;2.10;1.00;;;14.00;61.20;;;;;;4943319;29;20221;-84
2022/05/25 01:51:44;;;;;;;2.78;1.17;;;14.00;60.70;;;;;;4943309;29;20534;-83
2022/05/25 01:54:14;;;;;;;0.80;0.80;;;14.10;60.00;;;;;;4943392;29;20574;-83
2022/05/25 01:56:46;;;;;;;1.63;1.10;;;14.00;60.00;;;;;;4943039;29;20293;-83
2022/05/25 01:59:17;;;;;;;1.10;1.00;;;14.00;60.00;;;;;;4943783;29;21046;-84
2022/05/25 02:04:19;;;;;;;1.10;1.10;;;14.10;59.70;;;;;;4944942;28;20241;-84
2022/05/25 02:04:38;;;;;;;1.30;0.80;;;14.10;58.80;;;;;;4953572;29;20238;-85
2022/05/25 02:07:19;;;;;;;1.10;0.82;;;14.10;58.50;;;;;;4955045;29;20203;-84
2022/05/25 02:10:08;;;;;;;2.45;1.10;;;14.10;57.90;;;;;;4954768;29;20206;-85
2022/05/25 02:12:46;;;;;;;2.45;1.10;;;14.10;57.80;;;;;;4955858;29;20203;-84
2022/05/25 02:15:27;;;;;;;1.30;1.20;;;14.10;57.00;;;;;;4944157;28;20238;-83
2022/05/25 02:18:03;;;;;;;1.25;0.80;;;14.10;57.10;;;;;;4944326;29;20293;-84
2022/05/25 02:20:38;;;;;;;0.82;0.82;;;14.20;57.10;;;;;;4944375;29;20265;-84
2022/05/25 02:23:11;;;;;;;1.10;1.00;;;14.10;57.30;;;;;;4944975;29;20217;-82
2022/05/25 02:25:44;;;;;;;1.30;1.20;;;14.20;57.90;;;;;;4944624;29;20234;-85
2022/05/25 02:28:17;;;;;;;5.50;1.30;;;14.10;58.00;;;;;;4944665;29;20215;-84
2022/05/25 02:30:48;;;;;;;1.00;1.00;;;14.10;58.20;;;;;;4945477;29;20213;-84
2022/05/25 02:33:23;;;;;;;2.95;1.00;;;14.10;58.80;;;;;;4951762;29;20245;-84
2022/05/25 02:35:51;;;;;;;1.42;0.95;;;14.00;58.50;;;;;;4957290;28;20263;-84
2022/05/25 02:38:19;;;;;;;3.25;1.30;;;14.00;58.20;;;;;;4960136;29;20234;-84
2022/05/25 02:40:46;;;;;;;1.00;1.00;;;14.00;58.40;;;;;;4957635;28;20241;-87
2022/05/25 02:43:13;;;;;;;1.27;1.17;;;14.00;58.50;;;;;;4961139;28;20206;-85
2022/05/25 02:45:40;;;;;;;2.97;1.05;;;13.90;58.30;;;;;;4961315;28;20234;-86
2022/05/25 02:48:08;;;;;;;1.00;0.88;;;13.90;58.40;;;;;;4961652;28;20183;-85
2022/05/25 02:50:36;;;;;;;2.35;0.85;;;13.90;58.70;;;;;;4961057;28;20198;-85
2022/05/25 02:53:04;;;;;;;2.10;1.38;;;13.80;58.80;;;;;;4956637;29;20254;-85
2022/05/25 02:55:31;;;;;;;5.70;1.30;;;13.70;59.10;;;;;;4956579;29;20242;-85
2022/05/25 02:57:59;;;;;;;2.20;1.17;;;13.70;59.50;;;;;;4944550;29;20221;-84
2022/05/25 03:00:26;;;;;;;1.35;1.25;;;13.60;58.90;;;;;;4942659;29;20226;-84
2022/05/25 03:02:56;;;;;;;1.67;1.10;;;13.60;58.70;;;;;;4942594;28;20226;-85
2022/05/25 03:05:24;;;;;;;0.73;0.70;;;13.50;58.70;;;;;;4941226;29;20242;-84
2022/05/25 03:07:52;;;;;;;0.90;0.90;;;13.50;59.20;;;;;;4942009;28;20215;-84
2022/05/25 03:10:19;;;;;;;1.40;1.30;;;13.40;59.60;;;;;;4943504;29;20246;-84
2022/05/25 03:12:47;;;;;;;1.08;1.00;;;13.40;59.50;;;;;;4944524;29;20210;-84
2022/05/25 03:15:14;;;;;;;1.30;1.20;;;13.30;59.70;;;;;;4943463;29;20233;-82
2022/05/25 03:17:41;;;;;;;1.58;1.00;;;13.30;60.60;;;;;;4942725;29;20691;-84
2022/05/25 03:20:11;;;;;;;1.38;1.00;;;13.30;60.50;;;;;;4942781;29;20495;-82
2022/05/25 03:22:39;;;;;;;1.95;1.20;;;13.20;61.60;;;;;;4943731;29;20603;-83
2022/05/25 03:25:09;;;;;;;1.20;1.10;;;13.20;61.60;;;;;;4943958;29;20262;-83
2022/05/25 03:27:36;;;;;;;1.70;1.60;;;13.20;61.60;;;;;;4942615;29;20588;-84
2022/05/25 03:30:04;;;;;;;1.70;1.30;;;13.20;62.20;;;;;;4943428;29;20295;-82
2022/05/25 03:32:30;;;;;;;2.55;1.20;;;13.20;62.70;;;;;;4942162;29;20277;-84
2022/05/25 03:34:59;;;;;;;1.75;1.30;;;13.10;62.80;;;;;;4944327;29;20776;-83
2022/05/25 03:37:26;;;;;;;2.60;2.30;;;13.20;62.30;;;;;;4944157;29;20206;-83
2022/05/25 03:39:53;;;;;;;2.33;1.33;;;13.20;62.40;;;;;;4950727;29;20568;-83
2022/05/25 03:42:23;;;;;;;2.10;1.60;;;13.20;61.60;;;;;;4943676;29;20242;-84
2022/05/25 03:44:50;;;;;;;1.75;1.38;;;13.20;61.60;;;;;;4942650;29;20246;-83
2022/05/25 03:47:18;;;;;;;2.15;1.50;;;13.20;61.60;;;;;;4943431;29;20693;-83
2022/05/25 03:49:46;;;;;;;1.30;1.20;;;13.20;61.60;;;;;;4942127;29;20232;-84
2022/05/25 03:52:13;;;;;;;1.40;1.30;;;13.20;61.60;;;;;;4941796;29;20322;-83
2022/05/25 03:54:40;;;;;;;5.13;1.30;;;13.20;61.60;;;;;;4941867;29;20233;-83
2022/05/25 03:57:07;;;;;;;3.03;1.20;;;13.20;61.60;;;;;;4942773;29;20679;-82
2022/05/25 03:59:35;;;;;;;2.25;1.67;;;13.20;61.60;;;;;;4954051;29;20198;-83
2022/05/25 04:02:02;;;;;;;1.48;1.38;;;13.20;61.60;;;;;;4954636;29;20231;-83
2022/05/25 04:04:29;;;;;;;2.78;1.45;;;13.20;62.90;;;;;;4953827;29;20272;-86
2022/05/25 04:06:56;;;;;;;4.85;1.88;;;13.20;63.70;;;;;;4953112;29;20210;-81
2022/05/25 04:09:23;;;;;;;2.28;1.30;;;13.20;64.10;;;;;;4953771;29;20217;-84
2022/05/25 04:11:50;;;;;;;1.67;1.10;;;13.30;64.20;;;;;;4952025;29;20214;-85
2022/05/25 04:14:18;;;;;;;1.77;1.60;;;13.40;64.40;;;;;;4954740;29;20242;-82
2022/05/25 04:16:47;;;;;;;1.25;1.20;;;13.30;64.10;;;;;;4954355;29;20211;-82
2022/05/25 04:19:14;;;;;;;1.50;1.40;;;13.40;64.80;;;;;;4953968;29;20234;-84
2022/05/25 04:21:41;;;;;;;1.80;1.70;;;13.30;64.80;;;;;;4958512;28;20242;-85
2022/05/25 04:24:08;;;;;;;3.58;1.20;;;13.20;64.90;;;;;;4958706;28;20210;-85
2022/05/25 04:26:35;;;;;;;1.25;1.15;;;13.20;65.60;;;;;;4959422;28;20209;-83
2022/05/25 04:29:02;;;;;;;1.60;1.50;;;13.20;66.30;;;;;;4959743;28;20210;-84
2022/05/25 04:31:29;;;;;;;2.05;1.20;;;13.10;66.50;;;;;;4955978;29;20191;-84
2022/05/25 04:33:57;;;;;;;1.98;1.70;;;13.00;67.20;;;;;;4952230;29;20202;-81
2022/05/25 04:36:24;;;;;;;2.45;1.33;;;13.00;67.60;;;;;;4947548;29;20638;-79
2022/05/25 04:38:51;;;;;;;1.73;1.63;;;12.90;68.40;;;;;;4946048;29;20278;-78
2022/05/25 04:41:19;;;;;;;2.13;1.92;;;12.90;68.30;;;;;;4945275;29;20249;-80
2022/05/25 04:43:46;;;;;;;1.40;1.30;;;12.90;69.10;;;;;;4953574;29;20217;-80
2022/05/25 04:46:14;;;;;;;2.67;1.40;;;12.90;68.50;;;;;;4958956;28;20213;-83
2022/05/25 04:48:41;;;;;;;2.25;1.45;;;12.90;68.60;;;;;;4959944;28;20218;-82
2022/05/25 04:51:11;;;;;;;3.85;1.30;;;13.00;68.90;;;;;;4954074;29;20238;-79
2022/05/25 04:53:38;;;;;;;1.50;1.40;;;13.00;69.00;;;;;;4952883;29;20278;-82
2022/05/25 04:58:57;;;;;;;1.55;1.45;;;13.40;67.10;;;;;;4921791;29;20200;-81
2022/05/25 05:01:24;;;;;;;4.23;1.60;;;14.30;62.60;;;;;;4949836;29;20230;-81
2022/05/25 05:03:50;;;;;;;4.17;1.27;;;15.20;57.70;;;;;;4946540;28;20506;-82
2022/05/25 05:06:19;;;;;;;4.90;1.20;;;16.10;52.20;;;;;;4947536;29;20944;-83
2022/05/25 05:08:46;;;;;;;2.73;1.10;;;16.90;48.10;;;;;;4948174;29;20471;-80
2022/05/25 05:11:15;;;;;;;1.87;0.90;;;17.80;45.50;;;;;;4947885;29;20478;-80
2022/05/25 05:13:42;;;;;;;1.37;1.17;;;18.50;42.30;;;;;;4946810;29;21031;-82
2022/05/25 05:16:11;;;;;;;3.17;1.23;;;19.10;40.10;;;;;;4948825;29;20429;-81
2022/05/25 05:18:38;;;;;;;6.00;1.33;;;19.50;38.30;;;;;;4951379;29;20449;-82
2022/05/25 05:21:07;;;;;;;1.50;1.00;;;20.00;37.10;;;;;;4948834;29;20920;-81
2022/05/25 05:23:37;;;;;;;1.27;0.97;;;20.40;34.20;;;;;;4952290;29;20433;-80
2022/05/25 05:26:04;;;;;;;1.40;1.10;;;20.50;34.30;;;;;;4956580;29;20465;-81
2022/05/25 05:28:33;;;;;;;2.10;1.07;;;20.90;33.30;;;;;;4957787;29;20467;-81
2022/05/25 05:31:02;;;;;;;0.97;0.80;;;21.10;32.80;;;;;;4955778;29;20452;-81
2022/05/25 05:33:29;;;;;;;2.40;0.73;;;20.90;32.90;;;;;;4952122;29;20466;-80
2022/05/25 05:36:00;;;;;;;0.80;0.80;;;21.20;32.30;;;;;;4950466;29;20562;-81
2022/05/25 05:38:29;;;;;;;2.53;1.30;;;21.40;31.50;;;;;;4951934;29;20474;-80
2022/05/25 05:40:58;;;;;;;1.40;1.00;;;21.20;31.20;;;;;;4946519;29;20813;-79
2022/05/25 05:43:25;;;;;;;1.17;1.00;;;20.90;33.30;;;;;;4946689;29;20508;-79
2022/05/25 05:45:55;;;;;;;2.73;0.90;;;20.40;34.30;;;;;;4949881;29;20513;-82
2022/05/25 05:48:25;;;;;;;1.63;1.17;;;20.40;33.80;;;;;;4956989;29;20460;-80
2022/05/25 05:50:55;;;;;;;2.83;1.10;;;20.70;33.00;;;;;;4949560;29;20456;-81
2022/05/25 05:53:23;;;;;;;2.10;1.10;;;20.90;32.80;;;;;;4955171;29;20476;-79
2022/05/25 05:55:50;;;;;;;1.30;1.20;;;21.00;32.80;;;;;;4953062;29;21058;-79
2022/05/25 05:58:19;;;;;;;1.80;1.10;;;21.00;32.70;;;;;;4947369;29;20441;-79
2022/05/25 06:00:46;;;;;;;1.27;0.87;;;21.20;32.30;;;;;;4947399;29;20502;-78
2022/05/25 06:03:13;;;;;;;1.07;0.90;;;21.40;31.50;;;;;;4950709;29;20435;-78
2022/05/25 06:05:40;;;;;;;10.93;1.30;;;21.20;30.90;;;;;;4951081;29;20465;-79
2022/05/25 06:08:09;;;;;;;1.10;1.00;;;21.20;30.90;;;;;;4951098;29;20546;-83
2022/05/25 06:10:37;;;;;;;2.80;1.40;;;21.20;30.70;;;;;;4956356;29;20462;-80
2022/05/25 06:13:07;;;;;;;3.80;0.90;;;21.10;31.70;;;;;;4954842;29;20459;-83
2022/05/25 06:21:04;;;;;;;1.93;0.90;;;21.60;30.00;;;;;;4956096;29;20480;-79
2022/05/25 06:23:32;;;;;;;0.77;0.77;;;21.40;29.90;;;;;;4944205;29;20851;-79
2022/05/25 06:25:58;;;;;;;1.10;0.97;;;21.50;30.00;;;;;;4953270;29;20540;-80
2022/05/25 06:28:26;;;;;;;2.20;1.07;;;21.50;30.00;;;;;;4954008;29;21001;-79
2022/05/25 06:30:54;;;;;;;1.03;0.93;;;21.80;30.10;;;;;;4955221;29;20850;-80
2022/05/25 06:33:22;;;;;;;3.03;1.30;;;21.50;30.00;;;;;;4958974;29;20467;-82
2022/05/25 06:35:49;;;;;;;1.10;1.00;;;21.60;30.00;;;;;;4955022;29;20487;-80
2022/05/25 06:38:17;;;;;;;1.60;0.80;;;21.50;30.00;;;;;;4952902;29;20467;-80
2022/05/25 06:40:43;;;;;;;1.50;0.90;;;21.40;30.60;;;;;;4951540;29;20504;-78
2022/05/25 06:43:10;;;;;;;1.67;1.07;;;21.70;30.10;;;;;;4945231;29;20460;-79
2022/05/25 06:45:38;;;;;;;3.33;0.93;;;21.70;30.00;;;;;;4943687;29;20494;-79
2022/05/25 06:48:12;;;;;;;2.20;1.40;;;21.80;30.10;;;;;;4944781;29;20437;-79
2022/05/25 06:50:39;;;;;;;3.13;1.13;;;21.20;29.80;;;;;;4944961;29;20443;-80
2022/05/25 06:53:06;;;;;;;1.67;1.17;;;21.00;31.20;;;;;;4948958;29;20958;-78
2022/05/25 06:55:33;;;;;;;5.60;1.30;;;20.30;32.90;;;;;;4958911;28;20496;-84
2022/05/25 06:58:00;;;;;;;1.40;1.20;;;19.30;35.20;;;;;;4961320;28;20506;-85
2022/05/25 07:00:27;;;;;;;2.10;1.23;;;18.90;37.70;;;;;;4960223;29;20517;-83
2022/05/25 07:02:54;;;;;;;2.40;1.10;;;18.50;37.40;;;;;;4960145;28;20517;-81
2022/05/25 07:05:22;;;;;;;2.73;1.40;;;18.40;37.30;;;;;;4960612;28;20474;-82
2022/05/25 07:07:49;;;;;;;1.73;1.43;;;18.30;37.20;;;;;;4960403;28;20560;-81
2022/05/25 07:10:16;;;;;;;1.70;1.50;;;18.10;37.60;;;;;;4959864;28;20473;-81
2022/05/25 07:12:43;;;;;;;3.27;1.43;;;18.00;38.80;;;;;;4956944;29;20414;-82
2022/05/25 07:15:11;;;;;;;3.70;1.90;;;17.90;39.10;;;;;;4958505;29;20474;-82
2022/05/25 07:17:38;;;;;;;1.80;1.33;;;18.00;38.70;;;;;;4957246;29;20462;-81
2022/05/25 07:20:09;;;;;;;2.00;1.57;;;17.90;38.80;;;;;;4956670;29;20452;-86
2022/05/25 07:22:39;;;;;;;1.83;1.23;;;17.90;39.10;;;;;;4960748;28;20506;-87
2022/05/25 07:25:06;;;;;;;3.47;1.60;;;18.00;39.30;;;;;;4960589;28;20513;-85
2022/05/25 07:27:33;;;;;;;1.90;1.20;;;18.00;39.70;;;;;;4959053;28;20433;-82
2022/05/25 07:30:00;;;;;;;3.00;1.30;;;18.00;40.30;;;;;;4960800;28;20466;-88
2022/05/25 07:32:28;;;;;;;2.30;1.40;;;18.10;39.80;;;;;;4960364;29;20447;-85
2022/05/25 07:35:00;;;;;;;3.17;1.50;;;18.20;39.90;;;;;;4958828;29;20484;-82
2022/05/25 07:37:32;;;;;;;2.00;1.47;;;18.10;39.70;;;;;;4960508;28;20447;-85
2022/05/25 07:40:04;;;;;;;5.70;1.63;;;18.20;39.30;;;;;;4960519;28;20446;-86
2022/05/25 07:42:32;;;;;;;1.20;1.10;;;18.20;39.30;;;;;;4959574;28;20541;-81
2022/05/25 07:45:01;;;;;;;1.93;1.30;;;18.20;40.00;;;;;;4958641;29;20895;-80
2022/05/25 07:47:30;;;;;;;3.03;1.47;;;18.30;39.80;;;;;;4954829;28;20517;-80
2022/05/25 07:49:57;;;;;;;2.23;1.40;;;18.40;39.50;;;;;;4948909;29;20458;-80
2022/05/25 07:52:29;;;;;;;2.83;1.77;;;18.60;37.60;;;;;;4947530;29;20465;-80
2022/05/25 07:54:58;;;;;;;1.93;1.37;;;18.50;37.40;;;;;;4949036;29;20482;-82
2022/05/25 07:57:26;;;;;;;2.13;1.33;;;18.30;39.10;;;;;;4948847;29;20469;-79
2022/05/25 07:59:53;;;;;;;2.83;1.17;;;18.40;39.90;;;;;;4947815;29;20439;-80
2022/05/25 08:07:55;;;;;;;1.70;1.30;;;18.20;37.10;;;;;;4948721;29;20416;-82
2022/05/25 08:10:25;;;;;;;2.20;1.20;;;18.30;37.20;;;;;;4944390;29;20458;-80
2022/05/25 08:12:57;;;;;;;2.00;1.40;;;18.30;36.80;;;;;;4946713;29;20443;-80
2022/05/25 08:15:25;;;;;;;2.57;1.43;;;18.40;37.30;;;;;;4952552;29;20476;-80
2022/05/25 08:17:51;;;;;;;1.10;1.00;;;18.60;36.80;;;;;;4948768;29;20517;-80
2022/05/25 08:20:19;;;;;;;1.30;1.20;;;18.70;34.90;;;;;;4946539;29;20425;-81
2022/05/25 08:22:47;;;;;;;1.70;1.20;;;18.90;35.40;;;;;;4944812;29;20496;-81
2022/05/25 08:25:16;;;;;;;4.83;1.10;;;18.70;34.70;;;;;;4948558;29;20564;-80
2022/05/25 08:27:43;;;;;;;2.50;1.07;;;18.80;32.80;;;;;;4950076;29;20462;-82
2022/05/25 08:30:14;;;;;;;1.00;0.90;;;18.90;31.80;;;;;;4949866;29;20478;-84
2022/05/25 08:32:41;;;;;;;4.47;1.50;;;18.90;31.00;;;;;;4951869;29;20433;-81
2022/05/25 08:35:09;;;;;;;1.67;1.23;;;19.10;32.10;;;;;;4956250;29;20464;-80
2022/05/25 08:37:37;;;;;;;2.53;1.07;;;19.30;31.60;;;;;;4957253;29;20428;-82
2022/05/25 08:40:04;;;;;;;4.93;1.20;;;19.60;30.60;;;;;;4951894;29;20441;-79
2022/05/25 08:42:38;;;;;;;2.90;1.13;;;19.80;31.10;;;;;;4952274;29;20505;-79
2022/05/25 08:47:47;;;;;;;1.70;1.00;;;20.40;30.40;;;;;;5674661;23;20509;-80
2022/05/25 08:50:14;;;;;;;5.27;1.10;;;20.60;29.30;;;;;;4964105;28;20525;-82
2022/05/25 08:52:41;;;;;;;1.73;1.10;;;20.80;29.50;;;;;;4960654;29;20453;-81
2022/05/25 08:55:11;;;;;;;6.60;1.50;;;20.90;29.50;;;;;;4963229;29;20505;-80
2022/05/25 08:57:47;;;;;;;1.17;1.07;;;21.10;29.70;;;;;;4962047;29;20448;-79
2022/05/25 09:00:17;;;;;;;2.63;0.70;;;21.00;28.00;;;;;;4976814;23;21982;-76
2022/05/25 09:02:54;;;;;;;1.50;1.07;;;20.70;26.80;;;;;;4941410;29;20497;-75
2022/05/25 09:05:27;;;;;;;0.97;0.90;;;20.20;28.00;;;;;;4941664;29;20457;-76
2022/05/25 09:08:06;;;;;;;3.60;1.10;;;20.20;29.00;;;;;;4942761;29;20922;-76
2022/05/25 09:10:39;;;;;;;1.80;0.90;;;20.30;27.80;;;;;;4941501;29;20521;-76
2022/05/25 09:13:11;;;;;;;3.73;1.13;;;20.40;26.80;;;;;;4941184;29;20446;-76
2022/05/25 09:16:15;;;;;;;4.07;1.20;;;20.50;26.50;;;;;;4941219;29;20472;-75
2022/05/25 09:18:35;;;;;;;3.13;1.00;;;20.70;26.50;;;;;;4941545;29;20915;-76
2022/05/25 09:21:05;;;;;;;1.73;1.00;;;20.90;26.90;;;;;;4943956;29;20456;-76
2022/05/25 09:23:32;;;;;;;1.73;1.20;;;20.90;26.50;;;;;;4941798;29;20480;-76
2022/05/25 09:26:00;;;;;;;2.10;1.10;;;21.10;26.90;;;;;;4941076;29;20810;-75
2022/05/25 09:28:31;;;;;;;0.80;0.70;;;21.40;26.60;;;;;;4941986;29;20572;-76
2022/05/25 09:31:02;;;;;;;1.90;1.20;;;21.40;25.30;;;;;;4941300;29;20464;-75
2022/05/25 09:33:36;;;;;;;2.33;1.07;;;21.30;25.10;;;;;;4941327;29;20521;-75
2022/05/25 09:36:08;;;;;;;2.03;0.93;;;21.20;25.80;;;;;;4941716;29;20458;-76
2022/05/25 09:38:43;;;;;;;2.60;1.10;;;21.10;25.20;;;;;;4941952;29;20439;-75
2022/05/25 09:41:12;;;;;;;2.93;1.30;;;20.90;26.20;;;;;;4941628;29;20471;-75
2022/05/25 09:43:41;;;;;;;2.20;1.00;;;20.80;26.20;;;;;;4939506;29;20491;-75
2022/05/25 09:46:11;;;;;;;1.93;0.90;;;20.80;26.30;;;;;;4941674;29;20450;-75
2022/05/25 09:48:48;;;;;;;3.77;0.90;;;21.10;24.90;;;;;;4939284;29;20469;-76
2022/05/25 09:51:23;;;;;;;1.60;1.10;;;21.30;24.50;;;;;;4937805;29;20474;-75
2022/05/25 09:53:52;;;;;;;1.50;0.80;;;21.60;24.60;;;;;;4937790;29;20437;-76
2022/05/25 09:56:23;;;;;;;1.73;0.90;;;21.90;23.00;;;;;;4938004;29;20461;-76
2022/05/25 09:58:53;;;;;;;5.17;1.00;;;21.90;23.10;;;;;;4937759;29;20426;-76
2022/05/25 10:01:25;;;;;;;4.93;1.57;;;21.90;23.60;;;;;;4937651;29;20474;-75
2022/05/25 10:03:54;;;;;;;3.03;1.13;;;21.80;23.80;;;;;;4937478;29;20607;-76
2022/05/25 10:06:25;;;;;;;3.07;1.17;;;21.50;24.20;;;;;;4937579;29;20801;-76
2022/05/25 10:09:09;;;;;;;2.00;0.80;;;21.40;24.80;;;;;;4937340;29;20454;-74
2022/05/25 10:11:45;;;;;;;1.13;0.90;;;21.50;23.50;;;;;;4938626;29;20758;-75
2022/05/25 10:14:20;;;;;;;2.20;0.70;;;21.60;22.60;;;;;;4937381;29;20518;-76
2022/05/25 10:16:47;;;;;;;1.73;1.00;;;21.90;22.10;;;;;;4938765;29;20541;-75
2022/05/25 10:19:18;;;;;;;1.80;1.10;;;22.20;22.30;;;;;;4937093;29;20481;-73
2022/05/25 10:21:48;;;;;;;2.40;1.07;;;22.20;22.30;;;;;;4937290;29;20480;-73
2022/05/25 10:24:17;;;;;;;1.30;1.20;;;21.90;23.70;;;;;;4937146;29;20441;-73
2022/05/25 10:26:48;;;;;;;6.10;1.20;;;21.80;23.80;;;;;;4937716;29;20464;-74
2022/05/25 10:37:58;;;;;;;1.43;1.00;;;22.00;22.10;;;;;;4941776;29;20752;-75
2022/05/25 10:40:25;;;;;;;1.93;0.90;;;22.10;22.20;;;;;;4948234;29;20516;-75
2022/05/25 10:42:58;;;;;;;3.43;0.90;;;22.20;22.20;;;;;;4941044;29;20470;-75
2022/05/25 10:45:32;;;;;;;1.53;0.87;;;22.50;22.70;;;;;;4949539;29;20880;-77
2022/05/25 10:48:08;;;;;;;3.50;0.90;;;22.60;23.10;;;;;;4955368;28;20460;-75
2022/05/25 10:50:45;;;;;;;0.70;0.70;;;22.50;22.70;;;;;;4952331;29;20473;-75
2022/05/25 10:53:24;;;;;;;3.70;0.90;;;22.50;23.20;;;;;;4955494;29;20420;-77
2022/05/25 10:55:58;;;;;;;3.03;0.70;;;22.60;21.90;;;;;;4950796;29;20803;-73
2022/05/25 10:59:01;;;;;;;2.10;0.70;;;22.30;19.80;;;;;;4951208;29;20458;-75
2022/05/25 11:01:48;;;;;;;3.63;0.90;;;22.40;19.80;;;;;;4950939;29;20462;-75
2022/05/25 11:04:37;;;;;;;0.93;0.70;;;22.70;21.10;;;;;;4950207;29;20409;-75
2022/05/25 11:07:20;;;;;;;2.77;0.60;;;23.10;20.70;;;;;;4950623;29;20448;-75
2022/05/25 11:10:16;;;;;;;4.43;1.07;;;23.20;20.90;;;;;;4944288;29;20425;-75
2022/05/25 11:12:55;;;;;;;0.60;0.50;;;23.10;19.70;;;;;;4940863;29;20467;-76
2022/05/25 11:15:29;;;;;;;8.20;1.07;;;23.00;20.40;;;;;;4939804;29;20425;-75
2022/05/25 11:18:09;;;;;;;1.43;0.70;;;23.10;20.30;;;;;;4938754;29;20440;-74
2022/05/25 11:20:44;;;;;;;0.93;0.57;;;23.00;19.60;;;;;;4938496;29;20917;-74
2022/05/25 11:23:48;;;;;;;1.43;0.80;;;22.70;20.30;;;;;;4937461;29;20569;-73
2022/05/25 11:26:46;;;;;;;1.87;1.07;;;22.80;20.20;;;;;;4933312;29;20556;-75
2022/05/25 11:29:31;;;;;;;3.33;0.53;;;22.60;19.40;;;;;;4936576;29;20425;-75
2022/05/25 11:32:03;;;;;;;3.67;0.70;;;22.60;19.70;;;;;;4936269;29;20477;-74
2022/05/25 11:34:46;;;;;;;1.57;0.60;;;22.70;19.80;;;;;;4936911;29;20493;-74
2022/05/25 11:37:34;;;;;;;3.20;1.03;;;22.50;19.90;;;;;;4937045;29;20466;-75
2022/05/25 11:40:10;;;;;;;2.00;0.60;;;22.40;20.80;;;;;;4936324;29;20786;-73
2022/05/25 11:42:49;;;;;;;1.53;0.60;;;22.60;20.60;;;;;;4935550;29;20504;-75
2022/05/25 11:45:30;;;;;;;2.23;0.80;;;22.60;19.60;;;;;;4935547;29;20437;-74
2022/05/25 11:48:16;;;;;;;1.20;0.67;;;22.50;20.00;;;;;;4935748;29;20462;-75
2022/05/25 11:50:47;;;;;;;1.00;0.50;;;22.90;19.40;;;;;;4935521;29;20682;-73
2022/05/25 11:53:41;;;;;;;2.10;0.70;;;23.20;18.70;;;;;;4935194;29;20447;-73
2022/05/25 11:56:23;;;;;;;0.63;0.63;;;23.20;18.20;;;;;;4935365;29;20444;-73
2022/05/25 11:59:15;;;;;;;0.70;0.40;;;23.30;18.50;;;;;;4935357;29;20465;-75
2022/05/25 12:01:48;;;;;;;0.83;0.73;;;23.30;18.60;;;;;;4936252;29;20536;-74
2022/05/25 12:04:35;;;;;;;1.37;0.50;;;23.40;19.10;;;;;;4935997;29;20500;-73
2022/05/25 12:07:19;;;;;;;4.23;0.70;;;23.80;19.20;;;;;;4935499;29;20521;-76
2022/05/25 12:10:20;;;;;;;3.07;0.70;;;24.00;18.50;;;;;;4935665;29;20552;-74
2022/05/25 12:12:53;;;;;;;1.57;0.60;;;23.70;18.90;;;;;;4937419;29;20454;-78
2022/05/25 12:15:25;;;;;;;2.00;0.67;;;23.40;18.90;;;;;;4950168;29;20489;-74
2022/05/25 12:18:14;;;;;;;1.20;0.63;;;23.30;19.40;;;;;;4938564;29;20458;-75
2022/05/25 12:20:48;;;;;;;3.80;0.70;;;23.30;19.40;;;;;;4950010;29;20533;-75
2022/05/25 12:23:19;;;;;;;2.10;0.70;;;23.40;19.50;;;;;;4942292;29;20646;-73
2022/05/25 12:25:52;;;;;;;5.63;0.70;;;23.40;18.90;;;;;;4935745;29;20767;-73
2022/05/25 12:28:23;;;;;;;0.83;0.70;;;23.40;19.50;;;;;;4936441;29;20447;-74
2022/05/25 12:30:50;;;;;;;1.27;0.50;;;23.20;18.60;;;;;;4935875;29;20486;-75
2022/05/25 12:33:23;;;;;;;0.80;0.60;;;23.20;19.00;;;;;;4938190;29;20549;-76
2022/05/25 12:35:51;;;;;;;6.60;0.93;;;23.40;19.70;;;;;;4937256;29;20462;-78
2022/05/25 12:38:20;;;;;;;1.13;0.97;;;23.40;18.90;;;;;;4937473;29;20454;-77
2022/05/25 12:40:49;;;;;;;0.73;0.50;;;23.50;19.00;;;;;;4937791;29;20461;-75
2022/05/25 12:43:52;;;;;;;1.60;0.53;;;23.30;20.10;;;;;;4936788;29;20500;-76
2022/05/25 12:49:42;;;;;;;1.23;0.60;;;23.90;18.40;;;;;;4912913;28;20479;-77
2022/05/25 12:52:43;;;;;;;1.47;0.50;;;24.20;18.90;;;;;;4936096;29;20569;-77
2022/05/25 12:55:33;;;;;;;2.87;0.80;;;24.20;19.10;;;;;;4938952;29;20878;-74
2022/05/25 12:58:01;;;;;;;2.67;0.50;;;23.80;17.80;;;;;;4939967;29;20439;-74
2022/05/25 13:00:39;;;;;;;1.10;0.60;;;23.00;18.30;;;;;;4942760;29;20467;-74
2022/05/25 13:03:22;;;;;;;0.90;0.43;;;22.90;18.50;;;;;;4937768;29;20831;-76
2022/05/25 13:05:59;;;;;;;2.00;0.60;;;23.00;19.00;;;;;;4935193;29;20528;-74
2022/05/25 13:09:05;;;;;;;2.70;0.90;;;22.90;18.50;;;;;;4935484;29;20465;-76
2022/05/25 13:11:37;;;;;;;0.90;0.60;;;23.30;18.00;;;;;;4935912;29;20452;-76
2022/05/25 13:14:08;;;;;;;0.80;0.50;;;23.40;17.80;;;;;;4935168;29;20488;-74
2022/05/25 13:16:58;;;;;;;0.83;0.40;;;23.70;18.20;;;;;;4935713;29;20557;-74
2022/05/25 13:19:44;;;;;;;1.23;0.70;;;23.90;18.40;;;;;;4938484;29;20436;-76
2022/05/25 13:22:27;;;;;;;1.93;0.77;;;24.00;17.70;;;;;;4940261;29;20465;-73
2022/05/25 13:25:09;;;;;;;3.23;0.70;;;24.20;17.50;;;;;;4942099;29;20501;-75
2022/05/25 13:28:16;;;;;;;3.43;0.60;;;24.30;17.50;;;;;;4939969;29;20621;-75
2022/05/25 13:31:08;;;;;;;1.60;0.60;;;24.30;17.90;;;;;;4937106;29;20494;-76
2022/05/25 13:33:41;;;;;;;4.67;0.90;;;24.30;17.20;;;;;;4941335;29;20449;-76
2022/05/25 13:36:17;;;;;;;2.47;0.60;;;24.00;17.80;;;;;;4939578;29;20804;-76
2022/05/25 13:38:47;;;;;;;2.00;0.50;;;23.40;17.50;;;;;;4938390;29;20477;-72
2022/05/25 13:41:18;;;;;;;0.80;0.53;;;22.90;18.00;;;;;;4939160;29;20480;-76
2022/05/25 13:43:56;;;;;;;1.13;1.03;;;22.60;18.80;;;;;;4939299;29;20465;-74
2022/05/25 13:46:39;;;;;;;1.10;0.70;;;22.70;19.60;;;;;;4940581;29;20484;-76